Time;durP1;ratioP1;P1;durP2;ratioP2;P2;SDS_P1;SDS_P2;PMS_P1;PMS_P2;Temp;Humidity;BMP_temperature;BMP_pressure;BME280_temperature;BME280_humidity;BME280_pressure;Samples;Min_cycle;Max_cycle;Signal;HPM_P1;HPM_P2
2023/03/06 00:00:34;;;;;;;25.42;10.77;;;;;;;4.03;72.73;99230.41;5000762;28;20162;-88
2023/03/06 00:03:01;;;;;;;20.77;10.23;;;;;;;4.04;72.70;99228.59;5002651;28;20496;-88
2023/03/06 00:05:28;;;;;;;24.05;9.88;;;;;;;4.01;72.57;99231.47;5031720;28;20045;-88
2023/03/06 00:07:55;;;;;;;24.20;9.80;;;;;;;4.05;72.56;99222.41;5049405;28;20069;-87
2023/03/06 00:10:24;;;;;;;24.48;10.10;;;;;;;4.02;72.53;99222.63;5019497;28;20047;-88
2023/03/06 00:12:52;;;;;;;23.02;10.38;;;;;;;4.04;72.61;99218.09;5026281;28;20106;-88
2023/03/06 00:15:19;;;;;;;21.95;10.07;;;;;;;4.03;72.53;99222.53;5030653;28;20399;-88
2023/03/06 00:17:46;;;;;;;25.75;10.50;;;;;;;4.03;72.54;99214.63;5050153;28;20040;-87
2023/03/06 00:20:13;;;;;;;24.23;10.52;;;;;;;4.04;72.68;99221.56;5030936;28;20053;-88
2023/03/06 00:22:40;;;;;;;26.17;11.70;;;;;;;4.06;72.42;99222.28;5019766;28;20045;-88
2023/03/06 00:25:11;;;;;;;30.48;11.93;;;;;;;4.03;72.72;99211.19;5022698;28;20064;-87
2023/03/06 00:27:38;;;;;;;25.33;10.75;;;;;;;4.09;72.54;99210.72;5004280;28;20049;-88
2023/03/06 00:30:05;;;;;;;31.45;12.48;;;;;;;4.08;72.28;99214.31;5035445;28;20455;-87
2023/03/06 00:32:33;;;;;;;35.53;13.20;;;;;;;4.08;72.17;99212.53;5017720;28;20055;-87
2023/03/06 00:35:00;;;;;;;27.88;11.98;;;;;;;4.12;72.12;99215.75;5035600;28;20037;-88
2023/03/06 00:37:27;;;;;;;30.33;12.75;;;;;;;4.16;71.48;99206.72;5028620;28;20037;-88
2023/03/06 00:39:54;;;;;;;31.60;13.60;;;;;;;4.14;72.06;99206.81;5030384;28;20467;-87
2023/03/06 00:42:21;;;;;;;31.35;13.65;;;;;;;4.09;72.01;99211.56;5038517;28;20056;-87
2023/03/06 00:44:50;;;;;;;32.13;13.60;;;;;;;4.07;72.44;99199.47;4993604;28;20051;-87
2023/03/06 00:47:16;;;;;;;33.58;13.75;;;;;;;4.03;72.98;99192.78;5019824;28;20041;-87
2023/03/06 00:49:43;;;;;;;34.17;13.38;;;;;;;4.01;73.11;99184.16;5030930;28;20117;-87
2023/03/06 00:52:11;;;;;;;28.25;13.70;;;;;;;4.00;73.01;99185.97;5019442;28;20083;-87
2023/03/06 00:54:38;;;;;;;33.47;13.23;;;;;;;4.05;72.79;99193.53;5020194;28;20152;-88
2023/03/06 00:57:05;;;;;;;31.17;13.55;;;;;;;4.05;72.83;99189.09;5019702;28;20136;-88
2023/03/06 00:59:32;;;;;;;31.80;13.40;;;;;;;4.02;73.12;99181.44;5014865;28;20055;-88
2023/03/06 01:01:59;;;;;;;30.00;13.23;;;;;;;4.00;73.21;99182.50;5019048;28;20125;-88
2023/03/06 01:04:26;;;;;;;30.00;12.68;;;;;;;3.99;73.34;99173.75;5030157;28;20038;-87
2023/03/06 01:06:53;;;;;;;34.22;14.18;;;;;;;4.03;73.28;99169.97;5022725;28;20056;-88
2023/03/06 01:09:19;;;;;;;33.03;14.55;;;;;;;4.03;73.11;99174.41;5032897;28;20052;-88
2023/03/06 01:11:46;;;;;;;34.20;12.82;;;;;;;4.00;73.30;99177.25;5020695;28;20041;-87
2023/03/06 01:14:13;;;;;;;35.78;13.10;;;;;;;4.04;73.11;99168.19;5032867;28;20037;-86
2023/03/06 01:16:40;;;;;;;28.33;13.13;;;;;;;4.05;73.25;99168.09;5036245;28;20500;-87
2023/03/06 01:19:08;;;;;;;31.63;13.52;;;;;;;4.00;73.74;99164.94;4991879;28;20045;-87
2023/03/06 01:21:35;;;;;;;28.95;13.00;;;;;;;3.89;74.39;99163.09;5020419;28;20052;-87
2023/03/06 01:24:02;;;;;;;26.05;11.73;;;;;;;3.95;74.13;99172.31;5033456;28;20106;-87
2023/03/06 01:26:29;;;;;;;31.38;12.95;;;;;;;3.94;73.89;99168.00;5002912;28;20072;-87
2023/03/06 01:28:56;;;;;;;31.95;14.07;;;;;;;3.92;73.70;99165.50;5009262;28;20136;-87
2023/03/06 01:31:24;;;;;;;30.25;12.68;;;;;;;3.86;74.07;99160.66;5031655;28;20057;-87
2023/03/06 01:33:51;;;;;;;33.00;14.32;;;;;;;3.90;73.92;99153.44;5013836;28;20056;-88
2023/03/06 01:36:18;;;;;;;33.72;13.93;;;;;;;3.89;74.21;99151.72;5005469;28;20045;-88
2023/03/06 01:38:44;;;;;;;31.35;13.23;;;;;;;3.86;74.45;99146.72;5023007;28;20061;-86
2023/03/06 01:41:14;;;;;;;29.73;13.15;;;;;;;3.88;74.30;99147.44;5000737;28;20063;-88
2023/03/06 01:43:45;;;;;;;30.95;13.15;;;;;;;3.84;74.61;99140.72;5024158;28;20535;-88
2023/03/06 01:46:32;;;;;;;31.23;14.05;;;;;;;3.78;74.71;99134.13;5019474;28;20056;-88
2023/03/06 01:49:07;;;;;;;39.42;13.93;;;;;;;3.88;73.99;99135.13;4978073;28;20053;-88
2023/03/06 01:51:47;;;;;;;27.08;12.80;;;;;;;3.84;74.99;99135.47;5042768;28;20042;-89
2023/03/06 01:54:18;;;;;;;33.70;12.63;;;;;;;3.87;74.66;99124.75;4988346;28;20049;-88
2023/03/06 01:56:46;;;;;;;31.60;12.40;;;;;;;3.89;74.17;99117.59;5018175;28;20067;-88
2023/03/06 01:59:13;;;;;;;28.90;12.73;;;;;;;3.88;73.82;99121.19;5023102;28;20064;-89
2023/03/06 02:01:40;;;;;;;32.10;13.43;;;;;;;3.87;73.92;99120.34;4994595;28;20049;-88
2023/03/06 02:04:07;;;;;;;30.95;12.90;;;;;;;3.85;74.04;99114.34;5033841;28;20042;-88
2023/03/06 02:06:37;;;;;;;30.92;13.60;;;;;;;3.83;74.54;99111.00;5032799;28;20068;-88
2023/03/06 02:09:05;;;;;;;30.63;14.07;;;;;;;3.86;74.14;99108.16;5023149;28;20406;-88
2023/03/06 02:11:32;;;;;;;32.83;13.35;;;;;;;3.82;74.23;99098.84;5031622;28;20106;-89
2023/03/06 02:13:59;;;;;;;32.15;12.80;;;;;;;3.84;74.26;99102.19;5032921;28;20048;-88
2023/03/06 02:16:28;;;;;;;30.58;13.75;;;;;;;3.77;74.56;99102.75;5040201;28;20099;-88
2023/03/06 02:18:57;;;;;;;32.83;13.00;;;;;;;3.74;74.66;99092.44;5029234;28;20075;-87
2023/03/06 02:21:34;;;;;;;37.00;13.77;;;;;;;3.72;74.40;99096.97;5017848;28;20045;-88
2023/03/06 02:24:12;;;;;;;33.40;13.65;;;;;;;3.70;74.86;99092.66;4966875;28;20064;-88
2023/03/06 02:26:41;;;;;;;31.38;13.98;;;;;;;3.76;74.89;99093.16;5003645;28;20053;-88
2023/03/06 02:29:08;;;;;;;34.67;13.15;;;;;;;3.79;74.34;99091.19;5023347;28;20041;-88
2023/03/06 02:31:35;;;;;;;32.53;12.95;;;;;;;3.68;74.76;99097.19;5029050;28;20052;-89
2023/03/06 02:34:22;;;;;;;32.08;13.00;;;;;;;3.63;75.16;99094.03;4991404;28;20053;-86
2023/03/06 02:36:52;;;;;;;26.48;11.95;;;;;;;3.69;74.69;99087.53;5006624;28;20049;-88
2023/03/06 02:39:21;;;;;;;32.38;12.70;;;;;;;3.69;75.15;99084.91;5000862;28;20501;-89
2023/03/06 02:41:48;;;;;;;35.22;13.77;;;;;;;3.72;75.00;99078.59;5028728;28;20052;-87
2023/03/06 02:44:16;;;;;;;30.13;13.50;;;;;;;3.69;74.94;99079.66;5006010;28;20045;-88
2023/03/06 02:46:43;;;;;;;33.78;13.38;;;;;;;3.66;75.42;99079.88;5019044;28;20053;-87
2023/03/06 02:49:10;;;;;;;30.40;12.23;;;;;;;3.68;75.30;99075.34;5017408;28;20045;-88
2023/03/06 02:51:37;;;;;;;28.60;13.00;;;;;;;3.66;75.30;99067.59;4990854;28;20100;-87
2023/03/06 02:54:04;;;;;;;32.03;12.77;;;;;;;3.67;75.18;99071.06;5015502;28;20151;-86
2023/03/06 02:56:31;;;;;;;31.77;14.15;;;;;;;3.67;74.96;99068.44;5032709;28;20140;-87
2023/03/06 02:58:58;;;;;;;28.10;13.15;;;;;;;3.67;75.08;99065.81;5013463;28;20144;-87
2023/03/06 03:01:25;;;;;;;35.15;12.82;;;;;;;3.68;75.09;99064.84;5002479;28;20069;-87
2023/03/06 03:03:52;;;;;;;32.80;13.27;;;;;;;3.66;75.01;99059.72;5036583;28;20481;-87
2023/03/06 03:06:19;;;;;;;30.58;13.27;;;;;;;3.66;74.87;99067.59;5028817;28;20045;-87
2023/03/06 03:08:47;;;;;;;28.48;13.20;;;;;;;3.68;74.86;99055.16;5030090;28;20519;-87
2023/03/06 03:11:14;;;;;;;31.27;13.50;;;;;;;3.67;74.96;99053.50;5005447;28;20061;-88
2023/03/06 03:13:43;;;;;;;33.65;13.23;;;;;;;3.67;75.20;99048.25;4998089;28;20042;-88
2023/03/06 03:16:16;;;;;;;32.67;13.10;;;;;;;3.65;75.29;99047.53;5017651;28;20046;-87
2023/03/06 03:18:43;;;;;;;29.52;13.02;;;;;;;3.66;75.16;99049.22;5029234;28;20037;-88
2023/03/06 03:21:12;;;;;;;34.75;14.38;;;;;;;3.68;74.98;99047.28;5018249;28;20040;-88
2023/03/06 03:23:39;;;;;;;34.65;13.75;;;;;;;3.58;75.43;99051.53;5038771;28;20052;-87
2023/03/06 03:26:07;;;;;;;30.95;14.15;;;;;;;3.59;75.81;99055.03;5030366;28;20037;-88
2023/03/06 03:28:36;;;;;;;27.80;12.52;;;;;;;3.63;75.41;99046.78;5025301;28;20060;-87
2023/03/06 03:31:06;;;;;;;30.30;12.65;;;;;;;3.65;75.25;99051.94;5021533;28;20091;-87
2023/03/06 03:33:33;;;;;;;28.38;12.88;;;;;;;3.62;75.38;99045.13;5029490;28;20087;-88
2023/03/06 03:36:01;;;;;;;27.65;13.48;;;;;;;3.66;75.15;99046.59;5003260;28;20108;-87
2023/03/06 03:38:29;;;;;;;33.55;13.70;;;;;;;3.55;76.53;99043.88;5020910;28;20047;-88
2023/03/06 03:40:56;;;;;;;32.67;13.90;;;;;;;3.57;76.83;99052.50;5019757;28;20057;-87
2023/03/06 03:43:23;;;;;;;32.90;13.80;;;;;;;3.62;76.48;99049.53;4989078;28;20041;-89
2023/03/06 03:45:56;;;;;;;40.78;14.02;;;;;;;3.60;77.03;99039.16;5000632;28;20092;-88
2023/03/06 03:48:23;;;;;;;31.77;12.77;;;;;;;3.60;76.97;99043.56;4981226;28;20065;-87
2023/03/06 03:50:50;;;;;;;36.05;13.48;;;;;;;3.59;76.74;99034.03;5022286;28;20052;-87
2023/03/06 03:53:19;;;;;;;29.70;12.90;;;;;;;3.60;76.64;99035.69;5019603;28;20045;-88
2023/03/06 03:55:47;;;;;;;30.98;13.27;;;;;;;3.59;76.28;99034.84;5016304;28;20057;-87
2023/03/06 03:58:16;;;;;;;28.45;12.32;;;;;;;3.56;75.97;99026.34;5021181;28;20069;-87
2023/03/06 04:00:43;;;;;;;27.92;13.52;;;;;;;3.57;75.88;99025.41;4987294;28;20065;-88
2023/03/06 04:03:13;;;;;;;32.35;13.60;;;;;;;3.53;76.48;99009.03;5027153;28;20048;-88
2023/03/06 04:05:43;;;;;;;34.63;13.57;;;;;;;3.48;76.57;99014.63;5034273;28;20045;-88
2023/03/06 04:08:12;;;;;;;28.65;13.43;;;;;;;3.54;76.26;99004.66;5000749;28;20049;-87
2023/03/06 04:10:42;;;;;;;28.55;12.10;;;;;;;3.53;76.01;99010.81;4998247;28;20037;-88
2023/03/06 04:13:10;;;;;;;28.10;11.70;;;;;;;3.47;76.15;99001.63;5032332;28;20472;-89
2023/03/06 04:15:41;;;;;;;29.77;12.73;;;;;;;3.51;76.06;99010.09;5032050;28;20037;-89
2023/03/06 04:18:09;;;;;;;28.20;13.57;;;;;;;3.51;75.99;99005.72;5003083;28;20056;-87
2023/03/06 04:20:35;;;;;;;32.08;13.52;;;;;;;3.54;76.20;99002.03;5035035;28;20037;-88
2023/03/06 04:23:04;;;;;;;34.40;13.68;;;;;;;3.55;75.82;99004.50;5009008;28;20095;-89
2023/03/06 04:25:31;;;;;;;31.92;13.10;;;;;;;3.52;76.13;99006.53;5014108;28;20408;-88
2023/03/06 04:28:00;;;;;;;37.50;18.58;;;;;;;3.53;75.87;98995.91;5020917;28;20060;-87
2023/03/06 04:30:29;;;;;;;31.23;14.40;;;;;;;3.58;75.44;99006.09;5017897;28;20098;-88
2023/03/06 04:32:56;;;;;;;40.70;17.90;;;;;;;3.56;75.56;99002.72;5023315;28;20041;-86
2023/03/06 04:35:23;;;;;;;26.80;12.88;;;;;;;3.52;75.38;98998.66;5031039;28;20040;-88
2023/03/06 04:37:56;;;;;;;29.90;14.20;;;;;;;3.51;75.75;98989.97;5024149;28;20126;-87
2023/03/06 04:40:27;;;;;;;29.35;12.68;;;;;;;3.51;76.35;98991.72;5025127;28;20516;-87
2023/03/06 04:42:58;;;;;;;30.50;12.93;;;;;;;3.44;76.45;98994.81;5047620;28;20099;-88
2023/03/06 04:45:27;;;;;;;32.38;12.57;;;;;;;3.47;76.47;98994.56;4998975;28;20055;-88
2023/03/06 04:47:55;;;;;;;28.80;13.55;;;;;;;3.48;76.13;98990.16;5005345;28;20454;-88
2023/03/06 04:50:22;;;;;;;33.47;14.63;;;;;;;3.44;76.12;98988.72;5032020;28;20095;-88
2023/03/06 04:52:50;;;;;;;33.72;14.15;;;;;;;3.40;76.29;98990.72;5032855;28;20132;-88
2023/03/06 04:55:17;;;;;;;31.08;14.57;;;;;;;3.43;76.01;98974.75;5018905;28;20045;-88
2023/03/06 04:57:46;;;;;;;30.38;15.10;;;;;;;3.47;76.25;98976.19;5003219;28;20132;-88
2023/03/06 05:00:15;;;;;;;41.17;17.27;;;;;;;3.44;76.29;98972.97;5007958;28;20041;-87
2023/03/06 05:02:43;;;;;;;36.60;16.85;;;;;;;3.43;76.50;98972.13;5008335;28;20049;-88
2023/03/06 05:05:11;;;;;;;37.33;15.20;;;;;;;3.38;77.02;98968.97;5006863;28;20041;-88
2023/03/06 05:07:38;;;;;;;32.25;14.85;;;;;;;3.41;76.81;98965.31;5016692;28;20041;-88
2023/03/06 05:10:06;;;;;;;32.08;15.18;;;;;;;3.40;76.98;98958.38;5031592;28;20069;-87
2023/03/06 05:12:36;;;;;;;31.40;15.38;;;;;;;3.36;77.02;98962.19;5019496;28;20523;-88
2023/03/06 05:15:04;;;;;;;29.60;14.55;;;;;;;3.43;76.67;98960.78;5038296;28;20127;-88
2023/03/06 05:17:31;;;;;;;30.65;14.68;;;;;;;3.37;76.70;98958.63;5037915;28;20046;-88
2023/03/06 05:19:58;;;;;;;28.52;15.63;;;;;;;3.40;76.67;98959.22;5016642;28;20510;-88
2023/03/06 05:22:24;;;;;;;27.23;14.93;;;;;;;3.42;76.44;98959.97;5033476;28;20080;-88
2023/03/06 05:24:51;;;;;;;28.88;14.75;;;;;;;3.44;76.47;98957.22;5018847;28;20048;-88
2023/03/06 05:27:18;;;;;;;23.85;13.38;;;;;;;3.40;76.15;98958.38;5008231;28;20041;-86
2023/03/06 05:29:45;;;;;;;25.25;13.73;;;;;;;3.39;76.37;98956.72;5032877;28;20080;-86
2023/03/06 05:32:11;;;;;;;26.20;13.82;;;;;;;3.38;76.53;98958.50;5016840;28;20048;-87
2023/03/06 05:34:38;;;;;;;31.42;14.80;;;;;;;3.41;76.31;98957.44;4990908;28;20051;-85
2023/03/06 05:37:05;;;;;;;37.42;15.30;;;;;;;3.39;76.33;98954.09;5004973;28;20049;-85
2023/03/06 05:39:32;;;;;;;27.30;13.63;;;;;;;3.36;76.60;98954.31;5023027;28;20118;-86
2023/03/06 05:41:58;;;;;;;33.67;15.07;;;;;;;3.37;76.25;98951.59;5008825;28;20497;-86
2023/03/06 05:44:33;;;;;;;29.08;13.40;;;;;;;3.36;76.13;98952.53;5024692;28;20550;-86
2023/03/06 05:47:00;;;;;;;24.42;12.93;;;;;;;3.35;76.05;98952.63;5015817;28;20487;-86
2023/03/06 05:49:30;;;;;;;28.13;11.98;;;;;;;3.37;76.22;98950.75;5032478;28;20048;-86
2023/03/06 05:51:57;;;;;;;23.92;11.38;;;;;;;3.38;76.15;98958.50;5007313;28;20045;-85
2023/03/06 05:54:25;;;;;;;25.48;11.55;;;;;;;3.37;76.13;98963.88;5018906;28;20103;-86
2023/03/06 05:56:51;;;;;;;23.98;11.90;;;;;;;3.34;76.47;98949.19;5023455;28;20056;-85
2023/03/06 05:59:18;;;;;;;25.08;11.35;;;;;;;3.37;76.24;98954.22;5033705;28;20040;-86
2023/03/06 06:01:45;;;;;;;24.90;11.65;;;;;;;3.44;76.10;98954.59;5030649;28;20046;-85
2023/03/06 06:04:12;;;;;;;28.85;12.32;;;;;;;3.42;76.05;98948.63;5004585;28;20052;-85
2023/03/06 06:06:38;;;;;;;25.92;12.48;;;;;;;3.44;76.02;98958.06;5014399;28;20049;-86
2023/03/06 06:09:05;;;;;;;32.22;13.32;;;;;;;3.42;76.05;98949.47;5032466;28;20076;-85
2023/03/06 06:11:32;;;;;;;25.63;11.77;;;;;;;3.42;76.00;98956.50;4991006;28;20041;-85
2023/03/06 06:13:58;;;;;;;28.65;13.20;;;;;;;3.43;76.17;98947.66;5018532;28;20124;-85
2023/03/06 06:16:25;;;;;;;28.55;13.63;;;;;;;3.40;76.11;98951.34;5001505;28;20124;-85
2023/03/06 06:18:52;;;;;;;28.08;13.10;;;;;;;3.42;76.24;98954.72;5030964;28;20487;-85
2023/03/06 06:21:19;;;;;;;30.00;12.52;;;;;;;3.42;76.29;98953.88;4989041;28;20112;-85
2023/03/06 06:23:46;;;;;;;30.35;13.20;;;;;;;3.43;76.29;98959.00;5007260;28;20151;-84
2023/03/06 06:26:13;;;;;;;32.30;14.00;;;;;;;3.40;76.58;98959.22;5019751;28;20049;-85
2023/03/06 06:28:39;;;;;;;27.65;12.68;;;;;;;3.40;76.97;98956.59;5023619;28;20049;-85
2023/03/06 06:31:09;;;;;;;30.23;13.75;;;;;;;3.42;76.96;98962.56;5017102;28;20399;-86
2023/03/06 06:33:36;;;;;;;29.65;13.75;;;;;;;3.41;77.16;98955.66;5024118;28;20479;-85
2023/03/06 06:36:02;;;;;;;27.30;12.95;;;;;;;3.42;77.35;98953.88;5024802;28;20045;-85
2023/03/06 06:38:29;;;;;;;27.20;13.20;;;;;;;3.39;77.59;98964.59;5031775;28;20102;-85
2023/03/06 06:40:56;;;;;;;26.65;11.70;;;;;;;3.42;77.24;98959.97;5024789;28;20078;-86
2023/03/06 06:43:43;;;;;;;30.48;12.82;;;;;;;3.42;77.35;98959.13;4978065;28;20044;-85
2023/03/06 06:46:09;;;;;;;27.63;13.00;;;;;;;3.40;77.34;98959.22;5033779;28;20045;-85
2023/03/06 06:48:57;;;;;;;27.10;12.25;;;;;;;3.40;77.52;98958.38;5016205;28;20045;-84
2023/03/06 06:51:24;;;;;;;29.75;13.13;;;;;;;3.39;77.49;98957.56;5018537;28;20064;-85
2023/03/06 06:53:51;;;;;;;24.85;12.15;;;;;;;3.43;77.52;98964.25;5033417;28;20514;-84
2023/03/06 06:56:17;;;;;;;28.75;12.40;;;;;;;3.42;77.62;98965.19;5003945;28;20056;-85
2023/03/06 06:58:44;;;;;;;30.98;13.90;;;;;;;3.40;77.64;98971.50;5023399;28;20508;-85
2023/03/06 07:01:12;;;;;;;33.65;13.77;;;;;;;3.46;77.17;98971.91;5023745;28;20073;-84
2023/03/06 07:03:39;;;;;;;32.85;13.68;;;;;;;3.51;76.94;98974.22;5032249;28;20073;-85
2023/03/06 07:06:06;;;;;;;28.02;12.38;;;;;;;3.52;76.80;98975.88;5028197;28;20124;-85
2023/03/06 07:08:33;;;;;;;33.40;13.52;;;;;;;3.52;76.62;98975.88;5017999;28;20065;-85
2023/03/06 07:11:05;;;;;;;28.60;13.27;;;;;;;3.50;76.88;98979.56;5019621;28;20424;-84
2023/03/06 07:13:31;;;;;;;27.95;13.55;;;;;;;3.47;77.50;98988.50;4985498;28;20096;-85
2023/03/06 07:15:58;;;;;;;24.08;13.73;;;;;;;3.42;77.76;98986.19;4992761;28;20057;-86
2023/03/06 07:18:25;;;;;;;29.40;14.05;;;;;;;3.43;78.38;98990.50;4997990;28;20045;-85
2023/03/06 07:20:55;;;;;;;29.90;13.77;;;;;;;3.46;78.55;98990.28;4988068;28;20531;-86
2023/03/06 07:23:23;;;;;;;26.85;12.70;;;;;;;3.42;78.78;98988.81;4972136;28;20545;-85
2023/03/06 07:25:50;;;;;;;31.80;13.52;;;;;;;3.43;78.76;98989.66;4997647;28;20412;-86
2023/03/06 07:28:17;;;;;;;32.35;14.40;;;;;;;3.47;79.04;98991.13;4988250;28;20060;-86
2023/03/06 07:30:45;;;;;;;28.83;13.35;;;;;;;3.43;79.31;98985.25;4987898;28;20044;-87
2023/03/06 07:33:12;;;;;;;39.05;15.18;;;;;;;3.44;78.84;98988.72;5017805;28;20056;-86
2023/03/06 07:35:40;;;;;;;36.40;14.90;;;;;;;3.48;79.00;98992.78;5016546;28;20045;-87
2023/03/06 07:38:07;;;;;;;36.45;15.90;;;;;;;3.51;79.02;98982.09;5016919;28;20045;-86
2023/03/06 07:40:34;;;;;;;34.33;15.25;;;;;;;3.53;78.83;98982.78;5017390;28;20507;-85
2023/03/06 07:43:01;;;;;;;35.50;14.63;;;;;;;3.56;78.79;98986.97;4992179;28;20100;-86
2023/03/06 07:45:58;;;;;;;30.83;14.10;;;;;;;3.55;79.38;98991.38;5006002;28;20050;-85
2023/03/06 07:48:26;;;;;;;39.58;16.95;;;;;;;3.59;78.77;98992.03;4985467;28;20048;-86
2023/03/06 07:50:59;;;;;;;25.38;13.55;;;;;;;3.58;78.58;98988.53;5016909;28;20040;-86
2023/03/06 07:53:26;;;;;;;27.88;12.52;;;;;;;3.62;78.64;98991.78;4989718;28;20046;-85
2023/03/06 07:55:52;;;;;;;36.47;13.95;;;;;;;3.66;78.55;98987.97;5047232;28;20549;-84
2023/03/06 07:58:19;;;;;;;28.20;13.75;;;;;;;3.61;78.85;98990.97;5031673;28;20056;-84
2023/03/06 08:00:46;;;;;;;29.83;13.75;;;;;;;3.62;79.23;98995.25;5005810;28;20060;-84
2023/03/06 08:03:13;;;;;;;32.42;14.10;;;;;;;3.67;79.49;99002.78;5002962;28;20071;-85
2023/03/06 08:05:40;;;;;;;26.90;13.50;;;;;;;3.66;79.71;99007.22;5019903;28;20044;-85
2023/03/06 08:08:07;;;;;;;28.52;12.93;;;;;;;3.72;79.45;99002.47;5037767;28;20053;-85
2023/03/06 08:10:34;;;;;;;33.92;13.85;;;;;;;3.76;79.63;99009.16;5018655;28;20543;-85
2023/03/06 08:13:01;;;;;;;31.42;13.68;;;;;;;3.79;79.80;99001.03;5036047;28;20056;-85
2023/03/06 08:15:27;;;;;;;25.77;13.35;;;;;;;3.85;79.50;98997.97;5020624;28;20053;-85
2023/03/06 08:17:54;;;;;;;31.65;12.93;;;;;;;3.95;78.86;98998.13;5033360;28;20060;-85
2023/03/06 08:20:21;;;;;;;32.00;12.68;;;;;;;4.03;78.33;98999.22;5020870;28;20041;-85
2023/03/06 08:22:48;;;;;;;29.27;12.57;;;;;;;4.08;77.65;98994.47;5019880;28;20045;-85
2023/03/06 08:25:14;;;;;;;26.63;12.70;;;;;;;4.15;77.09;99002.72;5035545;28;20049;-85
2023/03/06 08:27:42;;;;;;;23.30;12.52;;;;;;;4.19;77.01;98998.06;5030415;28;20120;-85
2023/03/06 08:30:09;;;;;;;28.23;12.95;;;;;;;4.21;76.57;98997.00;5023804;28;20041;-85
2023/03/06 08:32:36;;;;;;;23.75;11.65;;;;;;;4.23;76.36;99002.97;5017375;28;20433;-85
2023/03/06 08:35:04;;;;;;;32.88;13.02;;;;;;;4.26;76.27;98996.66;5020689;28;20045;-85
2023/03/06 08:37:30;;;;;;;27.20;11.75;;;;;;;4.25;76.32;98998.44;5024718;28;20420;-85
2023/03/06 08:39:57;;;;;;;23.98;11.60;;;;;;;4.27;76.22;98998.31;5020963;28;20539;-85
2023/03/06 08:42:24;;;;;;;29.50;12.65;;;;;;;4.30;76.05;99003.34;5020914;28;20049;-86
2023/03/06 08:44:51;;;;;;;23.27;11.38;;;;;;;4.31;76.17;99008.50;5007573;28;20103;-86
2023/03/06 08:47:17;;;;;;;28.13;12.50;;;;;;;4.32;75.84;99007.53;5009324;28;20080;-85
2023/03/06 08:49:44;;;;;;;26.95;11.48;;;;;;;4.35;76.05;99011.72;5029647;28;20118;-85
2023/03/06 08:52:11;;;;;;;27.23;11.55;;;;;;;4.37;75.61;99012.44;5023340;28;20410;-86
2023/03/06 08:54:38;;;;;;;22.65;10.80;;;;;;;4.40;75.63;99019.25;4992228;28;20099;-85
2023/03/06 08:57:05;;;;;;;22.50;9.63;;;;;;;4.43;75.55;99017.25;5035922;28;20122;-85
2023/03/06 08:59:32;;;;;;;24.42;10.15;;;;;;;4.46;75.67;99019.63;5037535;28;20047;-85
2023/03/06 09:01:59;;;;;;;22.85;10.65;;;;;;;4.48;75.49;99017.72;4991826;28;20132;-85
2023/03/06 09:04:28;;;;;;;22.15;10.07;;;;;;;4.52;75.52;99013.91;5024066;28;20047;-84
2023/03/06 09:06:55;;;;;;;22.98;10.75;;;;;;;4.56;75.26;99023.22;5018497;28;20054;-85
2023/03/06 09:09:22;;;;;;;24.38;10.63;;;;;;;4.61;75.40;99016.78;5034103;28;20045;-85
2023/03/06 09:11:50;;;;;;;21.42;9.98;;;;;;;4.64;75.21;99025.28;5019232;28;20427;-86
2023/03/06 09:14:16;;;;;;;21.35;10.00;;;;;;;4.67;75.04;99011.88;5037785;28;20435;-85
2023/03/06 09:16:43;;;;;;;24.40;10.13;;;;;;;4.71;74.90;99023.84;5019556;28;20399;-85
2023/03/06 09:19:10;;;;;;;22.08;11.05;;;;;;;4.74;74.83;99014.88;5019774;28;20492;-85
2023/03/06 09:21:37;;;;;;;24.83;10.88;;;;;;;4.77;74.58;99014.66;5048293;28;20121;-85
2023/03/06 09:24:03;;;;;;;22.50;10.68;;;;;;;4.80;74.42;99017.03;5032639;28;20087;-85
2023/03/06 09:26:30;;;;;;;26.63;11.50;;;;;;;4.85;74.50;99019.31;5033742;28;20116;-85
2023/03/06 09:29:11;;;;;;;24.52;10.32;;;;;;;4.90;74.47;99017.97;4995262;28;20045;-85
2023/03/06 09:31:38;;;;;;;23.85;10.88;;;;;;;4.92;74.11;99016.06;5018258;28;20049;-86
2023/03/06 09:34:05;;;;;;;19.10;9.40;;;;;;;4.95;73.97;99021.09;5007985;28;20538;-84
2023/03/06 09:36:32;;;;;;;20.85;9.95;;;;;;;4.97;74.04;99021.81;5031328;28;20048;-84
2023/03/06 09:39:15;;;;;;;21.63;9.80;;;;;;;4.99;74.05;99019.06;4981575;28;20068;-85
2023/03/06 09:41:41;;;;;;;20.98;10.35;;;;;;;5.01;73.45;99014.50;5032732;28;20049;-84
2023/03/06 09:44:24;;;;;;;21.17;10.50;;;;;;;5.00;73.16;99011.03;5007545;28;20132;-84
2023/03/06 09:47:14;;;;;;;22.48;10.55;;;;;;;4.95;73.05;99010.56;4977341;28;20509;-83
2023/03/06 09:50:04;;;;;;;24.70;10.63;;;;;;;4.98;73.11;99014.75;4991565;28;20054;-82
2023/03/06 09:53:01;;;;;;;22.63;9.95;;;;;;;4.98;73.06;99012.94;4991780;28;20045;-84
2023/03/06 09:55:31;;;;;;;26.98;11.52;;;;;;;4.96;73.15;99006.13;4951050;28;20057;-82
2023/03/06 09:58:20;;;;;;;24.75;10.60;;;;;;;4.93;72.73;99003.75;4953485;28;20124;-82
2023/03/06 10:01:01;;;;;;;23.38;11.32;;;;;;;4.91;72.55;99006.53;4967006;28;20121;-83
2023/03/06 10:03:49;;;;;;;21.40;10.57;;;;;;;4.95;72.96;99010.56;4953575;28;20053;-82
2023/03/06 10:06:30;;;;;;;24.50;10.82;;;;;;;4.92;72.38;99008.19;4937073;28;20108;-82
2023/03/06 10:08:57;;;;;;;28.67;11.73;;;;;;;4.96;72.51;99012.25;4942438;28;20121;-82
2023/03/06 10:11:33;;;;;;;24.40;11.13;;;;;;;4.96;72.48;99012.25;4974428;28;20452;-81
2023/03/06 10:14:15;;;;;;;22.98;11.50;;;;;;;4.96;72.34;99011.41;4949077;28;20133;-82
2023/03/06 10:16:42;;;;;;;21.70;10.68;;;;;;;5.00;72.14;99012.84;4925664;28;20050;-81
2023/03/06 10:19:14;;;;;;;25.08;10.90;;;;;;;4.98;71.97;99012.13;4968218;28;20598;-81
2023/03/06 10:21:52;;;;;;;23.55;11.18;;;;;;;4.97;71.61;99000.75;4976703;28;20049;-82
2023/03/06 10:24:46;;;;;;;23.65;10.75;;;;;;;4.97;71.40;99006.03;4929737;28;20049;-82
2023/03/06 10:27:45;;;;;;;24.52;11.05;;;;;;;4.95;71.37;99004.47;4946625;28;20124;-82
2023/03/06 10:30:49;;;;;;;24.42;11.77;;;;;;;4.95;71.15;99005.31;4983002;28;20041;-83
2023/03/06 10:33:45;;;;;;;25.50;12.00;;;;;;;4.93;71.26;99007.22;4943885;28;20049;-80
2023/03/06 10:36:17;;;;;;;27.30;11.50;;;;;;;4.99;71.75;99008.56;4995490;28;20496;-80
2023/03/06 10:38:44;;;;;;;24.90;10.85;;;;;;;5.01;71.79;99011.88;5018174;28;20102;-81
2023/03/06 10:41:11;;;;;;;21.83;11.35;;;;;;;5.02;71.44;99010.94;5004244;28;20512;-82
2023/03/06 10:43:42;;;;;;;24.38;9.98;;;;;;;5.02;71.36;99004.84;5035135;28;20676;-81
2023/03/06 10:46:11;;;;;;;22.15;9.98;;;;;;;5.03;71.45;99003.88;5029941;28;20120;-82
2023/03/06 10:48:40;;;;;;;25.77;11.48;;;;;;;5.03;71.00;99006.50;5030399;28;20126;-82
2023/03/06 10:51:13;;;;;;;22.35;10.77;;;;;;;5.02;70.68;99008.31;5031800;28;20125;-83
2023/03/06 10:54:13;;;;;;;22.27;10.90;;;;;;;4.99;70.14;99011.19;5008270;28;20553;-82
2023/03/06 10:56:44;;;;;;;25.75;12.05;;;;;;;5.03;70.90;99009.13;4996827;28;20045;-80
2023/03/06 10:59:11;;;;;;;23.70;11.25;;;;;;;5.05;70.85;99012.50;4991771;28;20048;-82
2023/03/06 11:01:41;;;;;;;25.75;11.20;;;;;;;5.08;71.04;99006.97;5036481;28;20129;-82
2023/03/06 11:04:20;;;;;;;25.52;11.55;;;;;;;5.07;70.66;99016.66;5017257;28;20037;-81
2023/03/06 11:06:48;;;;;;;23.25;10.90;;;;;;;5.10;70.83;99018.22;5013496;28;20476;-80
2023/03/06 11:09:17;;;;;;;24.85;11.32;;;;;;;5.09;70.62;99013.91;5032838;28;20040;-81
2023/03/06 11:11:44;;;;;;;24.23;10.60;;;;;;;5.10;70.83;99016.44;5034412;28;20077;-82
2023/03/06 11:14:16;;;;;;;22.00;10.60;;;;;;;5.09;70.05;99016.53;5028793;28;20049;-81
2023/03/06 11:16:51;;;;;;;23.90;11.13;;;;;;;5.08;69.99;99009.59;5054165;28;20419;-81
2023/03/06 11:19:22;;;;;;;23.23;10.82;;;;;;;5.11;70.48;99015.44;5007033;28;20052;-81
2023/03/06 11:22:29;;;;;;;23.48;11.18;;;;;;;5.08;69.74;99006.97;5031636;28;20107;-81
2023/03/06 11:24:57;;;;;;;23.75;11.20;;;;;;;5.12;70.18;99008.41;4947077;28;20050;-81
2023/03/06 11:27:33;;;;;;;29.17;12.40;;;;;;;5.10;69.83;98998.00;5033384;28;20045;-81
2023/03/06 11:30:10;;;;;;;23.90;11.77;;;;;;;5.17;70.01;99003.63;5011605;28;20157;-82
2023/03/06 11:32:51;;;;;;;23.23;12.25;;;;;;;5.15;69.87;98993.22;5012120;28;20071;-81
2023/03/06 11:35:27;;;;;;;21.55;12.55;;;;;;;5.21;69.99;98992.72;5032390;28;20037;-83
2023/03/06 11:37:59;;;;;;;26.48;13.88;;;;;;;5.23;70.50;98996.06;5014745;28;20041;-82